sensor_id;sensor_type;location;lat;lon;timestamp;P1;durP1;ratioP1;P2;durP2;ratioP2
82760;SDS011;72498;42.022;21.444;2024-01-06T00:23:14;584.17;;;176.27;;
82760;SDS011;72498;42.022;21.444;2024-01-06T00:25:41;660.28;;;189.57;;
82760;SDS011;72498;42.022;21.444;2024-01-06T00:28:08;559.45;;;162.50;;
82760;SDS011;72498;42.022;21.444;2024-01-06T00:30:40;603.03;;;184.27;;
82760;SDS011;72498;42.022;21.444;2024-01-06T00:33:07;710.25;;;192.50;;
82760;SDS011;72498;42.022;21.444;2024-01-06T00:35:42;511.02;;;158.25;;
82760;SDS011;72498;42.022;21.444;2024-01-06T00:38:36;557.85;;;164.90;;
82760;SDS011;72498;42.022;21.444;2024-01-06T00:41:02;720.53;;;200.13;;
82760;SDS011;72498;42.022;21.444;2024-01-06T00:43:32;570.25;;;166.88;;
82760;SDS011;72498;42.022;21.444;2024-01-06T00:46:24;615.17;;;181.68;;
82760;SDS011;72498;42.022;21.444;2024-01-06T00:48:51;703.05;;;201.73;;
82760;SDS011;72498;42.022;21.444;2024-01-06T00:51:20;707.90;;;211.40;;
82760;SDS011;72498;42.022;21.444;2024-01-06T00:54:00;620.15;;;185.63;;
82760;SDS011;72498;42.022;21.444;2024-01-06T00:56:26;355.50;;;128.95;;
82760;SDS011;72498;42.022;21.444;2024-01-06T00:59:07;510.70;;;162.05;;
82760;SDS011;72498;42.022;21.444;2024-01-06T01:01:34;433.33;;;142.98;;
82760;SDS011;72498;42.022;21.444;2024-01-06T01:04:01;701.35;;;208.55;;
82760;SDS011;72498;42.022;21.444;2024-01-06T01:06:28;444.55;;;143.57;;
82760;SDS011;72498;42.022;21.444;2024-01-06T01:08:54;363.40;;;128.73;;
82760;SDS011;72498;42.022;21.444;2024-01-06T01:11:27;603.90;;;188.00;;
82760;SDS011;72498;42.022;21.444;2024-01-06T01:13:56;806.88;;;229.10;;
82760;SDS011;72498;42.022;21.444;2024-01-06T01:16:26;579.97;;;167.30;;
82760;SDS011;72498;42.022;21.444;2024-01-06T01:18:52;575.85;;;167.68;;
82760;SDS011;72498;42.022;21.444;2024-01-06T01:21:21;604.20;;;179.43;;
82760;SDS011;72498;42.022;21.444;2024-01-06T01:31:38;377.25;;;120.45;;
82760;SDS011;72498;42.022;21.444;2024-01-06T01:34:05;654.22;;;178.20;;
82760;SDS011;72498;42.022;21.444;2024-01-06T01:36:32;820.47;;;218.05;;
82760;SDS011;72498;42.022;21.444;2024-01-06T01:38:58;656.78;;;196.27;;
82760;SDS011;72498;42.022;21.444;2024-01-06T01:41:26;810.92;;;221.25;;
82760;SDS011;72498;42.022;21.444;2024-01-06T01:43:52;660.72;;;199.27;;
82760;SDS011;72498;42.022;21.444;2024-01-06T01:46:32;758.25;;;202.68;;
82760;SDS011;72498;42.022;21.444;2024-01-06T01:48:59;677.35;;;198.00;;
82760;SDS011;72498;42.022;21.444;2024-01-06T01:51:27;509.77;;;151.75;;
82760;SDS011;72498;42.022;21.444;2024-01-06T01:53:54;457.65;;;148.75;;
82760;SDS011;72498;42.022;21.444;2024-01-06T01:56:21;629.03;;;193.52;;
82760;SDS011;72498;42.022;21.444;2024-01-06T01:58:49;486.02;;;154.90;;
82760;SDS011;72498;42.022;21.444;2024-01-06T02:01:16;767.83;;;204.07;;
82760;SDS011;72498;42.022;21.444;2024-01-06T02:11:57;605.78;;;179.10;;
82760;SDS011;72498;42.022;21.444;2024-01-06T02:14:23;702.65;;;197.65;;
82760;SDS011;72498;42.022;21.444;2024-01-06T02:16:50;293.77;;;118.63;;
82760;SDS011;72498;42.022;21.444;2024-01-06T02:19:19;383.08;;;129.27;;
82760;SDS011;72498;42.022;21.444;2024-01-06T02:21:53;502.27;;;158.60;;
82760;SDS011;72498;42.022;21.444;2024-01-06T02:24:20;666.40;;;202.07;;
82760;SDS011;72498;42.022;21.444;2024-01-06T02:26:46;580.33;;;184.10;;
82760;SDS011;72498;42.022;21.444;2024-01-06T02:29:13;604.38;;;190.77;;
82760;SDS011;72498;42.022;21.444;2024-01-06T02:31:41;346.83;;;126.63;;
82760;SDS011;72498;42.022;21.444;2024-01-06T02:34:07;631.20;;;194.98;;
82760;SDS011;72498;42.022;21.444;2024-01-06T02:36:33;701.67;;;222.57;;
82760;SDS011;72498;42.022;21.444;2024-01-06T02:38:59;525.47;;;176.73;;
82760;SDS011;72498;42.022;21.444;2024-01-06T02:41:25;673.78;;;209.15;;
82760;SDS011;72498;42.022;21.444;2024-01-06T02:43:54;688.35;;;220.43;;
82760;SDS011;72498;42.022;21.444;2024-01-06T02:46:22;814.60;;;234.43;;
82760;SDS011;72498;42.022;21.444;2024-01-06T02:48:50;391.23;;;144.45;;
82760;SDS011;72498;42.022;21.444;2024-01-06T02:51:17;618.92;;;186.50;;
82760;SDS011;72498;42.022;21.444;2024-01-06T02:53:44;582.75;;;175.48;;
82760;SDS011;72498;42.022;21.444;2024-01-06T02:56:12;737.33;;;211.07;;
82760;SDS011;72498;42.022;21.444;2024-01-06T02:58:38;295.33;;;119.57;;
82760;SDS011;72498;42.022;21.444;2024-01-06T03:01:04;495.85;;;170.20;;
82760;SDS011;72498;42.022;21.444;2024-01-06T03:03:31;801.58;;;222.55;;
82760;SDS011;72498;42.022;21.444;2024-01-06T03:05:57;664.15;;;189.63;;
82760;SDS011;72498;42.022;21.444;2024-01-06T03:08:25;648.47;;;191.55;;
82760;SDS011;72498;42.022;21.444;2024-01-06T03:10:51;429.65;;;139.05;;
82760;SDS011;72498;42.022;21.444;2024-01-06T03:13:17;453.40;;;165.65;;
82760;SDS011;72498;42.022;21.444;2024-01-06T03:15:44;565.45;;;173.38;;
82760;SDS011;72498;42.022;21.444;2024-01-06T03:18:10;524.53;;;171.50;;
82760;SDS011;72498;42.022;21.444;2024-01-06T03:20:36;459.80;;;151.13;;
82760;SDS011;72498;42.022;21.444;2024-01-06T03:23:04;460.10;;;145.15;;
82760;SDS011;72498;42.022;21.444;2024-01-06T03:25:30;463.80;;;145.68;;
82760;SDS011;72498;42.022;21.444;2024-01-06T03:27:56;539.80;;;163.85;;
82760;SDS011;72498;42.022;21.444;2024-01-06T03:30:23;656.53;;;184.35;;
82760;SDS011;72498;42.022;21.444;2024-01-06T03:32:49;733.25;;;207.57;;
82760;SDS011;72498;42.022;21.444;2024-01-06T03:35:15;377.02;;;139.90;;
82760;SDS011;72498;42.022;21.444;2024-01-06T03:37:41;372.83;;;131.27;;
82760;SDS011;72498;42.022;21.444;2024-01-06T03:40:07;422.30;;;147.40;;
82760;SDS011;72498;42.022;21.444;2024-01-06T03:42:34;758.83;;;208.93;;
82760;SDS011;72498;42.022;21.444;2024-01-06T03:45:01;486.65;;;145.57;;
82760;SDS011;72498;42.022;21.444;2024-01-06T03:47:28;811.03;;;220.73;;
82760;SDS011;72498;42.022;21.444;2024-01-06T03:49:54;682.10;;;192.63;;
82760;SDS011;72498;42.022;21.444;2024-01-06T03:52:21;431.80;;;140.63;;
82760;SDS011;72498;42.022;21.444;2024-01-06T03:54:47;522.15;;;164.88;;
82760;SDS011;72498;42.022;21.444;2024-01-06T03:57:13;348.90;;;134.02;;
82760;SDS011;72498;42.022;21.444;2024-01-06T03:59:39;626.33;;;187.60;;
82760;SDS011;72498;42.022;21.444;2024-01-06T04:02:05;488.60;;;155.15;;
82760;SDS011;72498;42.022;21.444;2024-01-06T04:04:31;587.53;;;178.52;;
82760;SDS011;72498;42.022;21.444;2024-01-06T04:06:57;384.92;;;137.27;;
82760;SDS011;72498;42.022;21.444;2024-01-06T04:09:26;492.88;;;157.52;;
82760;SDS011;72498;42.022;21.444;2024-01-06T04:11:52;373.65;;;123.60;;
82760;SDS011;72498;42.022;21.444;2024-01-06T04:14:18;529.17;;;156.20;;
82760;SDS011;72498;42.022;21.444;2024-01-06T04:16:44;380.70;;;125.43;;
82760;SDS011;72498;42.022;21.444;2024-01-06T04:19:10;548.17;;;159.90;;
82760;SDS011;72498;42.022;21.444;2024-01-06T04:21:40;451.00;;;142.00;;
82760;SDS011;72498;42.022;21.444;2024-01-06T04:24:06;471.10;;;150.43;;
82760;SDS011;72498;42.022;21.444;2024-01-06T04:26:32;529.63;;;172.75;;
82760;SDS011;72498;42.022;21.444;2024-01-06T04:28:58;357.42;;;133.77;;
82760;SDS011;72498;42.022;21.444;2024-01-06T04:31:24;406.77;;;139.05;;
82760;SDS011;72498;42.022;21.444;2024-01-06T04:33:51;450.13;;;152.73;;
82760;SDS011;72498;42.022;21.444;2024-01-06T04:36:17;618.38;;;178.25;;
82760;SDS011;72498;42.022;21.444;2024-01-06T04:38:43;618.90;;;183.07;;
82760;SDS011;72498;42.022;21.444;2024-01-06T04:41:09;741.85;;;213.07;;
82760;SDS011;72498;42.022;21.444;2024-01-06T04:43:35;740.60;;;216.32;;
82760;SDS011;72498;42.022;21.444;2024-01-06T04:46:02;474.23;;;157.75;;
82760;SDS011;72498;42.022;21.444;2024-01-06T04:48:28;458.77;;;156.75;;
82760;SDS011;72498;42.022;21.444;2024-01-06T04:50:54;379.27;;;132.98;;
82760;SDS011;72498;42.022;21.444;2024-01-06T04:53:20;927.55;;;238.48;;
82760;SDS011;72498;42.022;21.444;2024-01-06T04:55:47;620.90;;;179.65;;
82760;SDS011;72498;42.022;21.444;2024-01-06T04:58:13;684.55;;;197.05;;
82760;SDS011;72498;42.022;21.444;2024-01-06T05:00:39;438.00;;;142.63;;
82760;SDS011;72498;42.022;21.444;2024-01-06T05:03:05;683.83;;;189.93;;
82760;SDS011;72498;42.022;21.444;2024-01-06T05:05:31;321.67;;;133.43;;
82760;SDS011;72498;42.022;21.444;2024-01-06T05:07:57;352.35;;;131.40;;
82760;SDS011;72498;42.022;21.444;2024-01-06T05:10:24;616.40;;;189.70;;
82760;SDS011;72498;42.022;21.444;2024-01-06T05:12:50;697.90;;;197.10;;
82760;SDS011;72498;42.022;21.444;2024-01-06T05:15:16;258.83;;;111.03;;
82760;SDS011;72498;42.022;21.444;2024-01-06T05:17:42;417.23;;;155.82;;
82760;SDS011;72498;42.022;21.444;2024-01-06T05:20:09;392.27;;;143.88;;
82760;SDS011;72498;42.022;21.444;2024-01-06T05:22:35;475.95;;;158.00;;
82760;SDS011;72498;42.022;21.444;2024-01-06T05:25:01;499.88;;;151.10;;
82760;SDS011;72498;42.022;21.444;2024-01-06T05:27:28;538.60;;;165.88;;
82760;SDS011;72498;42.022;21.444;2024-01-06T05:29:54;457.48;;;153.43;;
82760;SDS011;72498;42.022;21.444;2024-01-06T05:32:20;635.47;;;185.63;;
82760;SDS011;72498;42.022;21.444;2024-01-06T05:34:46;413.75;;;146.00;;
82760;SDS011;72498;42.022;21.444;2024-01-06T05:37:12;315.27;;;123.75;;
82760;SDS011;72498;42.022;21.444;2024-01-06T05:39:39;531.97;;;167.55;;
82760;SDS011;72498;42.022;21.444;2024-01-06T05:42:05;346.83;;;120.85;;
82760;SDS011;72498;42.022;21.444;2024-01-06T05:44:34;571.35;;;172.43;;
82760;SDS011;72498;42.022;21.444;2024-01-06T05:47:01;623.30;;;172.20;;
82760;SDS011;72498;42.022;21.444;2024-01-06T05:49:27;631.00;;;181.25;;
82760;SDS011;72498;42.022;21.444;2024-01-06T05:51:53;619.97;;;167.20;;
82760;SDS011;72498;42.022;21.444;2024-01-06T05:54:20;776.88;;;202.32;;
82760;SDS011;72498;42.022;21.444;2024-01-06T05:56:46;442.35;;;137.50;;
82760;SDS011;72498;42.022;21.444;2024-01-06T05:59:12;478.17;;;145.95;;
82760;SDS011;72498;42.022;21.444;2024-01-06T06:01:39;437.20;;;136.48;;
82760;SDS011;72498;42.022;21.444;2024-01-06T06:04:05;560.95;;;158.00;;
82760;SDS011;72498;42.022;21.444;2024-01-06T06:06:32;736.55;;;189.85;;
82760;SDS011;72498;42.022;21.444;2024-01-06T06:08:58;598.17;;;165.57;;
82760;SDS011;72498;42.022;21.444;2024-01-06T06:11:24;625.85;;;179.52;;
82760;SDS011;72498;42.022;21.444;2024-01-06T06:13:50;704.53;;;207.10;;
82760;SDS011;72498;42.022;21.444;2024-01-06T06:16:16;563.35;;;175.15;;
82760;SDS011;72498;42.022;21.444;2024-01-06T06:18:43;375.40;;;134.50;;
82760;SDS011;72498;42.022;21.444;2024-01-06T06:21:10;502.25;;;161.93;;
82760;SDS011;72498;42.022;21.444;2024-01-06T06:23:36;524.95;;;175.25;;
82760;SDS011;72498;42.022;21.444;2024-01-06T06:26:04;538.72;;;175.98;;
82760;SDS011;72498;42.022;21.444;2024-01-06T06:28:30;489.33;;;160.70;;
82760;SDS011;72498;42.022;21.444;2024-01-06T06:30:56;290.42;;;128.10;;
82760;SDS011;72498;42.022;21.444;2024-01-06T06:33:23;217.30;;;107.47;;
82760;SDS011;72498;42.022;21.444;2024-01-06T06:35:49;272.20;;;122.68;;
82760;SDS011;72498;42.022;21.444;2024-01-06T06:38:15;331.23;;;138.20;;
82760;SDS011;72498;42.022;21.444;2024-01-06T06:40:41;248.00;;;118.90;;
82760;SDS011;72498;42.022;21.444;2024-01-06T06:43:07;293.60;;;134.52;;
82760;SDS011;72498;42.022;21.444;2024-01-06T06:45:34;246.55;;;116.60;;
82760;SDS011;72498;42.022;21.444;2024-01-06T06:48:00;256.23;;;119.70;;
82760;SDS011;72498;42.022;21.444;2024-01-06T06:50:27;248.05;;;118.68;;
82760;SDS011;72498;42.022;21.444;2024-01-06T06:52:53;234.68;;;116.88;;
82760;SDS011;72498;42.022;21.444;2024-01-06T06:55:19;164.88;;;89.45;;
82760;SDS011;72498;42.022;21.444;2024-01-06T06:57:45;254.93;;;120.10;;
82760;SDS011;72498;42.022;21.444;2024-01-06T07:00:11;237.13;;;120.18;;
82760;SDS011;72498;42.022;21.444;2024-01-06T07:02:39;231.38;;;110.45;;
82760;SDS011;72498;42.022;21.444;2024-01-06T07:05:05;191.23;;;97.43;;
82760;SDS011;72498;42.022;21.444;2024-01-06T07:07:32;214.88;;;107.88;;
82760;SDS011;72498;42.022;21.444;2024-01-06T07:10:00;219.50;;;105.93;;
82760;SDS011;72498;42.022;21.444;2024-01-06T07:12:26;196.45;;;98.22;;
82760;SDS011;72498;42.022;21.444;2024-01-06T07:14:53;200.63;;;100.45;;
82760;SDS011;72498;42.022;21.444;2024-01-06T07:17:20;160.35;;;82.30;;
82760;SDS011;72498;42.022;21.444;2024-01-06T07:19:46;168.90;;;89.03;;
82760;SDS011;72498;42.022;21.444;2024-01-06T07:22:14;153.50;;;84.20;;
82760;SDS011;72498;42.022;21.444;2024-01-06T07:24:45;173.57;;;91.07;;
82760;SDS011;72498;42.022;21.444;2024-01-06T07:27:36;128.02;;;73.43;;
82760;SDS011;72498;42.022;21.444;2024-01-06T07:30:02;114.13;;;64.45;;
82760;SDS011;72498;42.022;21.444;2024-01-06T07:32:30;122.88;;;68.38;;
82760;SDS011;72498;42.022;21.444;2024-01-06T07:34:57;129.85;;;69.45;;
82760;SDS011;72498;42.022;21.444;2024-01-06T07:37:23;106.00;;;59.78;;
82760;SDS011;72498;42.022;21.444;2024-01-06T07:39:49;110.85;;;62.88;;
82760;SDS011;72498;42.022;21.444;2024-01-06T07:42:15;126.00;;;68.22;;
82760;SDS011;72498;42.022;21.444;2024-01-06T07:44:42;123.07;;;68.90;;
82760;SDS011;72498;42.022;21.444;2024-01-06T07:47:09;122.05;;;66.25;;
82760;SDS011;72498;42.022;21.444;2024-01-06T07:49:35;114.28;;;66.18;;
82760;SDS011;72498;42.022;21.444;2024-01-06T07:52:02;130.77;;;72.30;;
82760;SDS011;72498;42.022;21.444;2024-01-06T07:54:28;123.97;;;64.22;;
82760;SDS011;72498;42.022;21.444;2024-01-06T07:56:54;113.97;;;64.30;;
82760;SDS011;72498;42.022;21.444;2024-01-06T07:59:22;118.57;;;63.33;;
82760;SDS011;72498;42.022;21.444;2024-01-06T08:01:48;96.57;;;57.88;;
82760;SDS011;72498;42.022;21.444;2024-01-06T08:04:15;86.35;;;53.45;;
82760;SDS011;72498;42.022;21.444;2024-01-06T08:06:42;87.20;;;51.30;;
82760;SDS011;72498;42.022;21.444;2024-01-06T08:09:09;83.53;;;51.67;;
82760;SDS011;72498;42.022;21.444;2024-01-06T08:11:35;74.82;;;45.35;;
82760;SDS011;72498;42.022;21.444;2024-01-06T08:14:01;74.78;;;47.95;;
82760;SDS011;72498;42.022;21.444;2024-01-06T08:16:28;77.70;;;46.58;;
82760;SDS011;72498;42.022;21.444;2024-01-06T08:18:55;77.13;;;48.25;;
82760;SDS011;72498;42.022;21.444;2024-01-06T08:21:21;75.43;;;45.38;;
82760;SDS011;72498;42.022;21.444;2024-01-06T08:23:47;75.63;;;47.10;;
82760;SDS011;72498;42.022;21.444;2024-01-06T08:31:27;73.00;;;47.75;;
82760;SDS011;72498;42.022;21.444;2024-01-06T08:33:53;78.72;;;48.83;;
82760;SDS011;72498;42.022;21.444;2024-01-06T08:36:22;65.38;;;44.60;;
82760;SDS011;72498;42.022;21.444;2024-01-06T08:38:48;63.05;;;38.80;;
82760;SDS011;72498;42.022;21.444;2024-01-06T08:41:15;66.07;;;42.25;;
82760;SDS011;72498;42.022;21.444;2024-01-06T08:43:41;60.97;;;40.17;;
82760;SDS011;72498;42.022;21.444;2024-01-06T08:46:07;64.13;;;42.97;;
82760;SDS011;72498;42.022;21.444;2024-01-06T08:48:33;63.08;;;40.03;;
82760;SDS011;72498;42.022;21.444;2024-01-06T08:50:59;66.00;;;39.88;;
82760;SDS011;72498;42.022;21.444;2024-01-06T08:53:25;66.07;;;39.70;;
82760;SDS011;72498;42.022;21.444;2024-01-06T09:16:38;76.65;;;44.28;;
82760;SDS011;72498;42.022;21.444;2024-01-06T09:19:07;84.85;;;47.17;;
82760;SDS011;72498;42.022;21.444;2024-01-06T09:21:37;74.75;;;47.03;;
82760;SDS011;72498;42.022;21.444;2024-01-06T09:24:13;79.38;;;48.50;;
82760;SDS011;72498;42.022;21.444;2024-01-06T09:26:43;73.10;;;46.25;;
82760;SDS011;72498;42.022;21.444;2024-01-06T09:29:14;75.97;;;43.83;;
82760;SDS011;72498;42.022;21.444;2024-01-06T09:31:42;66.93;;;44.17;;
82760;SDS011;72498;42.022;21.444;2024-01-06T09:34:09;68.68;;;44.45;;
82760;SDS011;72498;42.022;21.444;2024-01-06T09:36:38;72.63;;;45.72;;
82760;SDS011;72498;42.022;21.444;2024-01-06T09:39:14;72.70;;;43.95;;
82760;SDS011;72498;42.022;21.444;2024-01-06T09:41:40;75.72;;;46.80;;
82760;SDS011;72498;42.022;21.444;2024-01-06T09:44:06;79.32;;;45.75;;
82760;SDS011;72498;42.022;21.444;2024-01-06T09:46:33;89.60;;;48.92;;
82760;SDS011;72498;42.022;21.444;2024-01-06T09:49:03;74.15;;;44.80;;
82760;SDS011;72498;42.022;21.444;2024-01-06T09:51:29;69.38;;;42.67;;
82760;SDS011;72498;42.022;21.444;2024-01-06T09:54:01;74.07;;;45.22;;
82760;SDS011;72498;42.022;21.444;2024-01-06T09:56:35;70.25;;;42.75;;
82760;SDS011;72498;42.022;21.444;2024-01-06T09:59:02;66.00;;;40.85;;
82760;SDS011;72498;42.022;21.444;2024-01-06T10:01:32;64.18;;;39.65;;
82760;SDS011;72498;42.022;21.444;2024-01-06T10:04:00;75.28;;;41.42;;
82760;SDS011;72498;42.022;21.444;2024-01-06T10:06:28;72.60;;;41.40;;
82760;SDS011;72498;42.022;21.444;2024-01-06T10:08:55;62.90;;;40.72;;
82760;SDS011;72498;42.022;21.444;2024-01-06T10:11:22;67.43;;;40.80;;
82760;SDS011;72498;42.022;21.444;2024-01-06T10:14:05;71.03;;;42.55;;
82760;SDS011;72498;42.022;21.444;2024-01-06T10:16:33;69.03;;;41.72;;
82760;SDS011;72498;42.022;21.444;2024-01-06T10:19:00;62.67;;;40.47;;
82760;SDS011;72498;42.022;21.444;2024-01-06T10:21:27;68.70;;;41.92;;
82760;SDS011;72498;42.022;21.444;2024-01-06T10:23:54;66.90;;;41.92;;
82760;SDS011;72498;42.022;21.444;2024-01-06T10:26:22;70.07;;;42.58;;
82760;SDS011;72498;42.022;21.444;2024-01-06T10:28:51;70.72;;;45.20;;
82760;SDS011;72498;42.022;21.444;2024-01-06T10:31:26;74.93;;;44.50;;
82760;SDS011;72498;42.022;21.444;2024-01-06T10:33:52;74.90;;;45.35;;
82760;SDS011;72498;42.022;21.444;2024-01-06T10:36:22;76.78;;;47.13;;
82760;SDS011;72498;42.022;21.444;2024-01-06T10:39:09;82.75;;;48.40;;
82760;SDS011;72498;42.022;21.444;2024-01-06T10:41:48;71.95;;;46.75;;
82760;SDS011;72498;42.022;21.444;2024-01-06T10:44:17;71.47;;;47.25;;
82760;SDS011;72498;42.022;21.444;2024-01-06T10:46:44;87.20;;;52.03;;
82760;SDS011;72498;42.022;21.444;2024-01-06T10:49:15;79.50;;;49.47;;
82760;SDS011;72498;42.022;21.444;2024-01-06T10:51:43;87.88;;;50.63;;
82760;SDS011;72498;42.022;21.444;2024-01-06T10:54:09;86.97;;;53.97;;
82760;SDS011;72498;42.022;21.444;2024-01-06T10:56:39;89.28;;;57.67;;
82760;SDS011;72498;42.022;21.444;2024-01-06T10:59:05;81.65;;;49.22;;
82760;SDS011;72498;42.022;21.444;2024-01-06T11:14:36;77.82;;;47.22;;
82760;SDS011;72498;42.022;21.444;2024-01-06T11:17:03;84.78;;;50.15;;
82760;SDS011;72498;42.022;21.444;2024-01-06T11:25:03;83.28;;;50.72;;
82760;SDS011;72498;42.022;21.444;2024-01-06T11:27:34;90.63;;;52.38;;
82760;SDS011;72498;42.022;21.444;2024-01-06T11:32:44;79.28;;;51.67;;
82760;SDS011;72498;42.022;21.444;2024-01-06T11:35:31;79.90;;;47.58;;
82760;SDS011;72498;42.022;21.444;2024-01-06T11:38:06;75.68;;;47.55;;
82760;SDS011;72498;42.022;21.444;2024-01-06T11:40:50;79.90;;;50.17;;
82760;SDS011;72498;42.022;21.444;2024-01-06T11:43:30;82.30;;;50.50;;
82760;SDS011;72498;42.022;21.444;2024-01-06T11:46:07;77.35;;;49.95;;
82760;SDS011;72498;42.022;21.444;2024-01-06T11:48:57;79.53;;;49.58;;
82760;SDS011;72498;42.022;21.444;2024-01-06T11:51:26;80.68;;;52.03;;
82760;SDS011;72498;42.022;21.444;2024-01-06T11:53:55;77.82;;;54.58;;
82760;SDS011;72498;42.022;21.444;2024-01-06T12:32:49;72.15;;;45.90;;
82760;SDS011;72498;42.022;21.444;2024-01-06T12:35:35;70.03;;;46.38;;
82760;SDS011;72498;42.022;21.444;2024-01-06T12:48:34;65.25;;;38.45;;
82760;SDS011;72498;42.022;21.444;2024-01-06T12:51:02;53.15;;;36.47;;
82760;SDS011;72498;42.022;21.444;2024-01-06T13:04:03;61.30;;;39.38;;
82760;SDS011;72498;42.022;21.444;2024-01-06T13:06:30;55.53;;;34.35;;
82760;SDS011;72498;42.022;21.444;2024-01-06T13:14:12;39.00;;;26.25;;
82760;SDS011;72498;42.022;21.444;2024-01-06T13:16:42;37.38;;;25.05;;
82760;SDS011;72498;42.022;21.444;2024-01-06T13:19:09;45.45;;;29.10;;
82760;SDS011;72498;42.022;21.444;2024-01-06T13:21:36;45.22;;;29.75;;
82760;SDS011;72498;42.022;21.444;2024-01-06T13:24:05;52.95;;;31.77;;
82760;SDS011;72498;42.022;21.444;2024-01-06T13:26:32;47.25;;;32.72;;
82760;SDS011;72498;42.022;21.444;2024-01-06T13:29:00;54.25;;;35.47;;
82760;SDS011;72498;42.022;21.444;2024-01-06T13:31:30;49.60;;;33.70;;
82760;SDS011;72498;42.022;21.444;2024-01-06T14:05:17;58.50;;;38.05;;
82760;SDS011;72498;42.022;21.444;2024-01-06T14:07:47;65.20;;;40.80;;
82760;SDS011;72498;42.022;21.444;2024-01-06T14:10:23;58.83;;;39.40;;
82760;SDS011;72498;42.022;21.444;2024-01-06T14:12:55;61.85;;;38.90;;
82760;SDS011;72498;42.022;21.444;2024-01-06T14:17:47;66.53;;;38.97;;
82760;SDS011;72498;42.022;21.444;2024-01-06T14:20:14;63.78;;;38.42;;
82760;SDS011;72498;42.022;21.444;2024-01-06T14:22:48;58.33;;;38.42;;
82760;SDS011;72498;42.022;21.444;2024-01-06T14:25:20;61.72;;;39.10;;
82760;SDS011;72498;42.022;21.444;2024-01-06T14:27:46;65.00;;;39.70;;
82760;SDS011;72498;42.022;21.444;2024-01-06T14:30:14;57.65;;;39.25;;
82760;SDS011;72498;42.022;21.444;2024-01-06T14:32:42;64.35;;;40.65;;
82760;SDS011;72498;42.022;21.444;2024-01-06T14:35:08;58.75;;;38.47;;
82760;SDS011;72498;42.022;21.444;2024-01-06T14:37:43;57.33;;;36.97;;
82760;SDS011;72498;42.022;21.444;2024-01-06T14:40:12;56.95;;;35.78;;
82760;SDS011;72498;42.022;21.444;2024-01-06T14:42:40;58.90;;;35.55;;
82760;SDS011;72498;42.022;21.444;2024-01-06T14:45:09;58.13;;;37.17;;
82760;SDS011;72498;42.022;21.444;2024-01-06T14:47:36;69.63;;;38.88;;
82760;SDS011;72498;42.022;21.444;2024-01-06T14:50:02;81.20;;;44.20;;
82760;SDS011;72498;42.022;21.444;2024-01-06T14:52:31;73.82;;;44.20;;
82760;SDS011;72498;42.022;21.444;2024-01-06T14:54:58;67.85;;;42.58;;
82760;SDS011;72498;42.022;21.444;2024-01-06T14:57:28;72.10;;;45.30;;
82760;SDS011;72498;42.022;21.444;2024-01-06T14:59:54;75.15;;;47.15;;
82760;SDS011;72498;42.022;21.444;2024-01-06T15:47:13;109.05;;;62.08;;
82760;SDS011;72498;42.022;21.444;2024-01-06T15:50:01;97.38;;;62.33;;
82760;SDS011;72498;42.022;21.444;2024-01-06T15:52:27;85.30;;;53.65;;
82760;SDS011;72498;42.022;21.444;2024-01-06T15:54:54;103.47;;;58.17;;
82760;SDS011;72498;42.022;21.444;2024-01-06T15:57:21;104.07;;;63.53;;
82760;SDS011;72498;42.022;21.444;2024-01-06T15:59:57;120.00;;;68.18;;
82760;SDS011;72498;42.022;21.444;2024-01-06T16:02:26;134.30;;;78.57;;
82760;SDS011;72498;42.022;21.444;2024-01-06T16:04:54;126.68;;;74.65;;
82760;SDS011;72498;42.022;21.444;2024-01-06T16:07:23;138.45;;;77.38;;
82760;SDS011;72498;42.022;21.444;2024-01-06T16:20:13;140.23;;;80.93;;
82760;SDS011;72498;42.022;21.444;2024-01-06T16:22:41;138.95;;;75.45;;
82760;SDS011;72498;42.022;21.444;2024-01-06T16:27:44;136.85;;;78.70;;
82760;SDS011;72498;42.022;21.444;2024-01-06T16:30:13;128.75;;;72.43;;
82760;SDS011;72498;42.022;21.444;2024-01-06T16:32:40;119.63;;;70.05;;
82760;SDS011;72498;42.022;21.444;2024-01-06T16:35:09;129.60;;;76.85;;
82760;SDS011;72498;42.022;21.444;2024-01-06T16:37:36;142.45;;;82.38;;
82760;SDS011;72498;42.022;21.444;2024-01-06T16:40:07;137.27;;;75.82;;
82760;SDS011;72498;42.022;21.444;2024-01-06T16:42:37;142.32;;;80.40;;
82760;SDS011;72498;42.022;21.444;2024-01-06T16:45:26;135.80;;;81.90;;
82760;SDS011;72498;42.022;21.444;2024-01-06T16:47:56;163.68;;;89.28;;
82760;SDS011;72498;42.022;21.444;2024-01-06T16:50:49;143.48;;;86.05;;
82760;SDS011;72498;42.022;21.444;2024-01-06T16:53:34;161.07;;;91.47;;
82760;SDS011;72498;42.022;21.444;2024-01-06T16:56:05;167.52;;;93.78;;
82760;SDS011;72498;42.022;21.444;2024-01-06T16:58:51;173.05;;;97.30;;
82760;SDS011;72498;42.022;21.444;2024-01-06T17:24:42;134.00;;;80.35;;
82760;SDS011;72498;42.022;21.444;2024-01-06T18:25:54;129.07;;;79.88;;
82760;SDS011;72498;42.022;21.444;2024-01-06T18:28:20;146.85;;;83.85;;
82760;SDS011;72498;42.022;21.444;2024-01-06T18:30:59;154.05;;;91.03;;
82760;SDS011;72498;42.022;21.444;2024-01-06T18:33:34;153.73;;;91.57;;
82760;SDS011;72498;42.022;21.444;2024-01-06T18:36:08;128.00;;;77.55;;
82760;SDS011;72498;42.022;21.444;2024-01-06T18:38:39;140.30;;;80.60;;
82760;SDS011;72498;42.022;21.444;2024-01-06T18:41:05;137.15;;;72.90;;
82760;SDS011;72498;42.022;21.444;2024-01-06T18:43:35;117.13;;;70.38;;
82760;SDS011;72498;42.022;21.444;2024-01-06T18:46:01;134.35;;;77.80;;
82760;SDS011;72498;42.022;21.444;2024-01-06T18:48:32;133.70;;;81.28;;
82760;SDS011;72498;42.022;21.444;2024-01-06T18:51:18;140.05;;;81.80;;
82760;SDS011;72498;42.022;21.444;2024-01-06T18:53:48;136.05;;;83.55;;
82760;SDS011;72498;42.022;21.444;2024-01-06T18:56:14;138.85;;;80.70;;
82760;SDS011;72498;42.022;21.444;2024-01-06T18:58:43;124.43;;;73.78;;
82760;SDS011;72498;42.022;21.444;2024-01-06T19:01:29;133.10;;;76.88;;
82760;SDS011;72498;42.022;21.444;2024-01-06T19:03:58;122.60;;;75.38;;
82760;SDS011;72498;42.022;21.444;2024-01-06T19:06:39;138.32;;;75.70;;
82760;SDS011;72498;42.022;21.444;2024-01-06T19:09:27;115.40;;;65.63;;
82760;SDS011;72498;42.022;21.444;2024-01-06T19:12:01;102.97;;;61.75;;
82760;SDS011;72498;42.022;21.444;2024-01-06T19:14:28;138.02;;;76.20;;
82760;SDS011;72498;42.022;21.444;2024-01-06T19:16:55;119.45;;;69.13;;
82760;SDS011;72498;42.022;21.444;2024-01-06T19:19:21;117.13;;;66.85;;
82760;SDS011;72498;42.022;21.444;2024-01-06T19:21:48;112.78;;;63.47;;
82760;SDS011;72498;42.022;21.444;2024-01-06T19:24:18;104.28;;;53.22;;
82760;SDS011;72498;42.022;21.444;2024-01-06T19:27:07;96.60;;;56.67;;